sensor_id;sensor_type;location;lat;lon;timestamp;P1;durP1;ratioP1;P2;durP2;ratioP2
15490;SDS011;7847;50.930;4.336;2024-03-08T00:00:15;0.50;;;0.50;;
15490;SDS011;7847;50.930;4.336;2024-03-08T00:02:44;0.40;;;0.40;;
15490;SDS011;7847;50.930;4.336;2024-03-08T00:05:11;0.40;;;0.40;;
15490;SDS011;7847;50.930;4.336;2024-03-08T00:07:37;0.30;;;0.30;;
15490;SDS011;7847;50.930;4.336;2024-03-08T00:10:04;0.50;;;0.50;;
15490;SDS011;7847;50.930;4.336;2024-03-08T00:12:30;0.30;;;0.30;;
15490;SDS011;7847;50.930;4.336;2024-03-08T00:14:56;0.40;;;0.40;;
15490;SDS011;7847;50.930;4.336;2024-03-08T00:17:22;0.40;;;0.40;;
15490;SDS011;7847;50.930;4.336;2024-03-08T00:19:49;0.50;;;0.50;;
15490;SDS011;7847;50.930;4.336;2024-03-08T00:22:15;0.50;;;0.50;;
15490;SDS011;7847;50.930;4.336;2024-03-08T00:24:41;0.40;;;0.40;;
15490;SDS011;7847;50.930;4.336;2024-03-08T00:27:07;0.47;;;0.47;;
15490;SDS011;7847;50.930;4.336;2024-03-08T00:29:34;0.47;;;0.47;;
15490;SDS011;7847;50.930;4.336;2024-03-08T00:32:00;0.40;;;0.40;;
15490;SDS011;7847;50.930;4.336;2024-03-08T00:34:26;0.40;;;0.40;;
15490;SDS011;7847;50.930;4.336;2024-03-08T00:36:52;0.50;;;0.50;;
15490;SDS011;7847;50.930;4.336;2024-03-08T00:39:18;0.50;;;0.50;;
15490;SDS011;7847;50.930;4.336;2024-03-08T00:41:46;0.40;;;0.40;;
15490;SDS011;7847;50.930;4.336;2024-03-08T00:44:12;0.40;;;0.40;;
15490;SDS011;7847;50.930;4.336;2024-03-08T00:46:38;0.40;;;0.40;;
15490;SDS011;7847;50.930;4.336;2024-03-08T00:49:04;0.40;;;0.40;;
15490;SDS011;7847;50.930;4.336;2024-03-08T00:51:31;0.40;;;0.40;;
15490;SDS011;7847;50.930;4.336;2024-03-08T00:53:57;0.40;;;0.40;;
15490;SDS011;7847;50.930;4.336;2024-03-08T00:56:23;0.40;;;0.40;;
15490;SDS011;7847;50.930;4.336;2024-03-08T00:58:50;0.40;;;0.40;;
15490;SDS011;7847;50.930;4.336;2024-03-08T01:01:16;0.50;;;0.50;;
15490;SDS011;7847;50.930;4.336;2024-03-08T01:03:44;0.40;;;0.40;;
15490;SDS011;7847;50.930;4.336;2024-03-08T01:06:10;0.40;;;0.40;;
15490;SDS011;7847;50.930;4.336;2024-03-08T01:08:36;0.40;;;0.40;;
15490;SDS011;7847;50.930;4.336;2024-03-08T01:11:07;0.40;;;0.40;;
15490;SDS011;7847;50.930;4.336;2024-03-08T01:13:34;0.37;;;0.37;;
15490;SDS011;7847;50.930;4.336;2024-03-08T01:16:01;0.40;;;0.40;;
15490;SDS011;7847;50.930;4.336;2024-03-08T01:18:28;0.40;;;0.40;;
15490;SDS011;7847;50.930;4.336;2024-03-08T01:20:55;0.40;;;0.40;;
15490;SDS011;7847;50.930;4.336;2024-03-08T01:23:21;0.40;;;0.40;;
15490;SDS011;7847;50.930;4.336;2024-03-08T01:25:47;0.40;;;0.40;;
15490;SDS011;7847;50.930;4.336;2024-03-08T01:28:17;0.40;;;0.40;;
15490;SDS011;7847;50.930;4.336;2024-03-08T01:30:43;0.40;;;0.40;;
15490;SDS011;7847;50.930;4.336;2024-03-08T01:33:10;0.40;;;0.40;;
15490;SDS011;7847;50.930;4.336;2024-03-08T01:35:36;0.40;;;0.40;;
15490;SDS011;7847;50.930;4.336;2024-03-08T01:38:06;0.40;;;0.40;;
15490;SDS011;7847;50.930;4.336;2024-03-08T01:40:32;0.40;;;0.40;;
15490;SDS011;7847;50.930;4.336;2024-03-08T01:43:16;0.40;;;0.40;;
15490;SDS011;7847;50.930;4.336;2024-03-08T01:45:42;0.40;;;0.40;;
15490;SDS011;7847;50.930;4.336;2024-03-08T01:48:08;0.43;;;0.43;;
15490;SDS011;7847;50.930;4.336;2024-03-08T01:50:35;0.40;;;0.40;;
15490;SDS011;7847;50.930;4.336;2024-03-08T01:53:01;0.40;;;0.40;;
15490;SDS011;7847;50.930;4.336;2024-03-08T01:55:28;0.40;;;0.40;;
15490;SDS011;7847;50.930;4.336;2024-03-08T01:57:54;0.40;;;0.40;;
15490;SDS011;7847;50.930;4.336;2024-03-08T02:00:21;0.40;;;0.40;;
15490;SDS011;7847;50.930;4.336;2024-03-08T02:02:48;0.50;;;0.50;;
15490;SDS011;7847;50.930;4.336;2024-03-08T02:05:15;0.40;;;0.40;;
15490;SDS011;7847;50.930;4.336;2024-03-08T02:07:41;0.40;;;0.40;;
15490;SDS011;7847;50.930;4.336;2024-03-08T02:10:10;0.50;;;0.50;;
15490;SDS011;7847;50.930;4.336;2024-03-08T02:12:37;0.37;;;0.37;;
15490;SDS011;7847;50.930;4.336;2024-03-08T02:15:04;0.40;;;0.40;;
15490;SDS011;7847;50.930;4.336;2024-03-08T02:17:31;0.40;;;0.40;;
15490;SDS011;7847;50.930;4.336;2024-03-08T02:19:58;0.50;;;0.50;;
15490;SDS011;7847;50.930;4.336;2024-03-08T02:22:26;0.40;;;0.40;;
15490;SDS011;7847;50.930;4.336;2024-03-08T02:24:53;0.40;;;0.40;;
15490;SDS011;7847;50.930;4.336;2024-03-08T02:27:23;0.40;;;0.40;;
15490;SDS011;7847;50.930;4.336;2024-03-08T02:29:50;0.40;;;0.40;;
15490;SDS011;7847;50.930;4.336;2024-03-08T02:32:17;0.37;;;0.37;;
15490;SDS011;7847;50.930;4.336;2024-03-08T02:34:43;0.40;;;0.40;;
15490;SDS011;7847;50.930;4.336;2024-03-08T02:37:09;0.43;;;0.43;;
15490;SDS011;7847;50.930;4.336;2024-03-08T02:39:35;0.40;;;0.40;;
15490;SDS011;7847;50.930;4.336;2024-03-08T02:42:01;0.40;;;0.40;;
15490;SDS011;7847;50.930;4.336;2024-03-08T02:44:27;0.43;;;0.43;;
15490;SDS011;7847;50.930;4.336;2024-03-08T02:46:53;0.50;;;0.50;;
15490;SDS011;7847;50.930;4.336;2024-03-08T02:49:20;0.50;;;0.50;;
15490;SDS011;7847;50.930;4.336;2024-03-08T02:51:46;0.40;;;0.40;;
15490;SDS011;7847;50.930;4.336;2024-03-08T02:54:12;0.50;;;0.50;;
15490;SDS011;7847;50.930;4.336;2024-03-08T02:56:38;0.50;;;0.50;;
15490;SDS011;7847;50.930;4.336;2024-03-08T02:59:04;0.40;;;0.40;;
15490;SDS011;7847;50.930;4.336;2024-03-08T03:01:30;0.40;;;0.40;;
15490;SDS011;7847;50.930;4.336;2024-03-08T03:03:57;0.30;;;0.30;;
15490;SDS011;7847;50.930;4.336;2024-03-08T03:06:23;0.40;;;0.40;;
15490;SDS011;7847;50.930;4.336;2024-03-08T03:08:49;0.40;;;0.40;;
15490;SDS011;7847;50.930;4.336;2024-03-08T03:11:16;0.43;;;0.43;;
15490;SDS011;7847;50.930;4.336;2024-03-08T03:13:42;0.40;;;0.40;;
15490;SDS011;7847;50.930;4.336;2024-03-08T03:16:16;0.33;;;0.33;;
15490;SDS011;7847;50.930;4.336;2024-03-08T03:18:43;0.40;;;0.40;;
15490;SDS011;7847;50.930;4.336;2024-03-08T03:21:10;0.37;;;0.37;;
15490;SDS011;7847;50.930;4.336;2024-03-08T03:23:37;0.40;;;0.40;;
15490;SDS011;7847;50.930;4.336;2024-03-08T03:26:05;0.40;;;0.40;;
15490;SDS011;7847;50.930;4.336;2024-03-08T03:28:36;0.40;;;0.40;;
15490;SDS011;7847;50.930;4.336;2024-03-08T03:31:04;0.40;;;0.40;;
15490;SDS011;7847;50.930;4.336;2024-03-08T03:33:31;0.43;;;0.43;;
15490;SDS011;7847;50.930;4.336;2024-03-08T03:35:59;0.40;;;0.40;;
15490;SDS011;7847;50.930;4.336;2024-03-08T03:38:26;0.30;;;0.30;;
15490;SDS011;7847;50.930;4.336;2024-03-08T03:40:53;0.50;;;0.50;;
15490;SDS011;7847;50.930;4.336;2024-03-08T03:43:22;0.33;;;0.33;;
15490;SDS011;7847;50.930;4.336;2024-03-08T03:45:48;0.40;;;0.40;;
15490;SDS011;7847;50.930;4.336;2024-03-08T03:48:15;0.40;;;0.40;;
15490;SDS011;7847;50.930;4.336;2024-03-08T03:50:41;0.40;;;0.40;;
15490;SDS011;7847;50.930;4.336;2024-03-08T03:53:07;0.50;;;0.50;;
15490;SDS011;7847;50.930;4.336;2024-03-08T03:55:33;0.50;;;0.50;;
15490;SDS011;7847;50.930;4.336;2024-03-08T03:57:59;0.40;;;0.40;;
15490;SDS011;7847;50.930;4.336;2024-03-08T04:00:26;0.50;;;0.50;;
15490;SDS011;7847;50.930;4.336;2024-03-08T04:02:52;0.43;;;0.43;;
15490;SDS011;7847;50.930;4.336;2024-03-08T04:05:19;0.50;;;0.50;;
15490;SDS011;7847;50.930;4.336;2024-03-08T04:07:46;0.40;;;0.40;;
15490;SDS011;7847;50.930;4.336;2024-03-08T04:10:12;0.50;;;0.50;;
15490;SDS011;7847;50.930;4.336;2024-03-08T04:12:38;0.40;;;0.40;;
15490;SDS011;7847;50.930;4.336;2024-03-08T04:15:04;0.50;;;0.50;;
15490;SDS011;7847;50.930;4.336;2024-03-08T04:17:32;0.40;;;0.40;;
15490;SDS011;7847;50.930;4.336;2024-03-08T04:20:02;0.40;;;0.40;;
15490;SDS011;7847;50.930;4.336;2024-03-08T04:22:33;0.50;;;0.50;;
15490;SDS011;7847;50.930;4.336;2024-03-08T04:25:00;0.40;;;0.40;;
15490;SDS011;7847;50.930;4.336;2024-03-08T04:27:27;0.50;;;0.50;;
15490;SDS011;7847;50.930;4.336;2024-03-08T04:29:53;0.40;;;0.40;;
15490;SDS011;7847;50.930;4.336;2024-03-08T04:32:19;0.50;;;0.50;;
15490;SDS011;7847;50.930;4.336;2024-03-08T04:34:45;0.40;;;0.40;;
15490;SDS011;7847;50.930;4.336;2024-03-08T04:37:11;0.30;;;0.30;;
15490;SDS011;7847;50.930;4.336;2024-03-08T04:39:39;0.40;;;0.40;;
15490;SDS011;7847;50.930;4.336;2024-03-08T04:42:05;0.43;;;0.43;;
15490;SDS011;7847;50.930;4.336;2024-03-08T04:44:36;0.50;;;0.50;;
15490;SDS011;7847;50.930;4.336;2024-03-08T04:47:05;0.50;;;0.50;;
15490;SDS011;7847;50.930;4.336;2024-03-08T04:49:34;0.50;;;0.50;;
15490;SDS011;7847;50.930;4.336;2024-03-08T04:52:03;0.50;;;0.50;;
15490;SDS011;7847;50.930;4.336;2024-03-08T04:54:30;0.50;;;0.50;;
15490;SDS011;7847;50.930;4.336;2024-03-08T04:56:56;0.30;;;0.30;;
15490;SDS011;7847;50.930;4.336;2024-03-08T04:59:22;0.50;;;0.50;;
15490;SDS011;7847;50.930;4.336;2024-03-08T05:01:49;0.43;;;0.43;;
15490;SDS011;7847;50.930;4.336;2024-03-08T05:04:15;0.50;;;0.50;;
15490;SDS011;7847;50.930;4.336;2024-03-08T05:06:41;0.50;;;0.50;;
15490;SDS011;7847;50.930;4.336;2024-03-08T05:09:07;0.50;;;0.50;;
15490;SDS011;7847;50.930;4.336;2024-03-08T05:11:42;0.50;;;0.50;;
15490;SDS011;7847;50.930;4.336;2024-03-08T05:14:09;0.50;;;0.50;;
15490;SDS011;7847;50.930;4.336;2024-03-08T05:16:35;0.40;;;0.40;;
15490;SDS011;7847;50.930;4.336;2024-03-08T05:19:01;0.50;;;0.50;;
15490;SDS011;7847;50.930;4.336;2024-03-08T05:21:28;0.43;;;0.43;;
15490;SDS011;7847;50.930;4.336;2024-03-08T05:23:54;0.50;;;0.50;;
15490;SDS011;7847;50.930;4.336;2024-03-08T05:26:20;0.50;;;0.50;;
15490;SDS011;7847;50.930;4.336;2024-03-08T05:28:47;0.40;;;0.40;;
15490;SDS011;7847;50.930;4.336;2024-03-08T05:31:23;0.40;;;0.40;;
15490;SDS011;7847;50.930;4.336;2024-03-08T05:33:49;0.50;;;0.50;;
15490;SDS011;7847;50.930;4.336;2024-03-08T05:36:15;0.50;;;0.50;;
15490;SDS011;7847;50.930;4.336;2024-03-08T05:38:44;0.50;;;0.50;;
15490;SDS011;7847;50.930;4.336;2024-03-08T05:41:10;0.50;;;0.50;;
15490;SDS011;7847;50.930;4.336;2024-03-08T05:43:37;0.50;;;0.50;;
15490;SDS011;7847;50.930;4.336;2024-03-08T05:46:03;0.40;;;0.40;;
15490;SDS011;7847;50.930;4.336;2024-03-08T05:48:30;0.40;;;0.40;;
15490;SDS011;7847;50.930;4.336;2024-03-08T05:50:57;0.40;;;0.40;;
15490;SDS011;7847;50.930;4.336;2024-03-08T05:53:23;0.40;;;0.40;;
15490;SDS011;7847;50.930;4.336;2024-03-08T05:55:49;0.50;;;0.50;;
15490;SDS011;7847;50.930;4.336;2024-03-08T05:58:15;0.40;;;0.40;;
15490;SDS011;7847;50.930;4.336;2024-03-08T06:00:41;0.30;;;0.30;;
15490;SDS011;7847;50.930;4.336;2024-03-08T06:03:07;0.40;;;0.40;;
15490;SDS011;7847;50.930;4.336;2024-03-08T06:05:34;0.50;;;0.50;;
15490;SDS011;7847;50.930;4.336;2024-03-08T06:08:00;0.40;;;0.40;;
15490;SDS011;7847;50.930;4.336;2024-03-08T06:10:26;0.50;;;0.50;;
15490;SDS011;7847;50.930;4.336;2024-03-08T06:12:52;0.40;;;0.40;;
15490;SDS011;7847;50.930;4.336;2024-03-08T06:15:19;0.47;;;0.47;;
15490;SDS011;7847;50.930;4.336;2024-03-08T06:17:45;0.60;;;0.60;;
15490;SDS011;7847;50.930;4.336;2024-03-08T06:20:12;0.50;;;0.50;;
15490;SDS011;7847;50.930;4.336;2024-03-08T06:22:38;0.40;;;0.40;;
15490;SDS011;7847;50.930;4.336;2024-03-08T06:25:08;0.43;;;0.43;;
15490;SDS011;7847;50.930;4.336;2024-03-08T06:27:36;0.50;;;0.50;;
15490;SDS011;7847;50.930;4.336;2024-03-08T06:30:02;0.50;;;0.50;;
15490;SDS011;7847;50.930;4.336;2024-03-08T06:32:29;0.50;;;0.50;;
15490;SDS011;7847;50.930;4.336;2024-03-08T06:34:55;0.40;;;0.40;;
15490;SDS011;7847;50.930;4.336;2024-03-08T06:37:22;0.50;;;0.50;;
15490;SDS011;7847;50.930;4.336;2024-03-08T06:39:48;0.50;;;0.50;;
15490;SDS011;7847;50.930;4.336;2024-03-08T06:42:17;0.40;;;0.40;;
15490;SDS011;7847;50.930;4.336;2024-03-08T06:44:43;0.50;;;0.50;;
15490;SDS011;7847;50.930;4.336;2024-03-08T06:47:15;0.47;;;0.47;;
15490;SDS011;7847;50.930;4.336;2024-03-08T06:49:44;0.40;;;0.40;;
15490;SDS011;7847;50.930;4.336;2024-03-08T06:52:10;0.40;;;0.40;;
15490;SDS011;7847;50.930;4.336;2024-03-08T06:54:36;0.40;;;0.40;;
15490;SDS011;7847;50.930;4.336;2024-03-08T06:57:03;0.47;;;0.47;;
15490;SDS011;7847;50.930;4.336;2024-03-08T06:59:30;0.40;;;0.40;;
15490;SDS011;7847;50.930;4.336;2024-03-08T07:01:56;0.43;;;0.43;;
15490;SDS011;7847;50.930;4.336;2024-03-08T07:04:24;0.40;;;0.40;;
15490;SDS011;7847;50.930;4.336;2024-03-08T07:06:54;0.40;;;0.40;;
15490;SDS011;7847;50.930;4.336;2024-03-08T07:09:20;0.40;;;0.40;;
15490;SDS011;7847;50.930;4.336;2024-03-08T07:11:46;0.50;;;0.50;;
15490;SDS011;7847;50.930;4.336;2024-03-08T07:14:12;0.50;;;0.50;;
15490;SDS011;7847;50.930;4.336;2024-03-08T07:16:40;0.40;;;0.40;;
15490;SDS011;7847;50.930;4.336;2024-03-08T07:19:06;0.40;;;0.40;;
15490;SDS011;7847;50.930;4.336;2024-03-08T07:21:32;0.40;;;0.40;;
15490;SDS011;7847;50.930;4.336;2024-03-08T07:23:58;0.50;;;0.50;;
15490;SDS011;7847;50.930;4.336;2024-03-08T07:26:24;0.50;;;0.50;;
15490;SDS011;7847;50.930;4.336;2024-03-08T07:28:50;0.40;;;0.40;;
15490;SDS011;7847;50.930;4.336;2024-03-08T07:31:17;0.50;;;0.50;;
15490;SDS011;7847;50.930;4.336;2024-03-08T07:34:00;0.40;;;0.40;;
15490;SDS011;7847;50.930;4.336;2024-03-08T07:36:26;0.50;;;0.50;;
15490;SDS011;7847;50.930;4.336;2024-03-08T07:38:52;0.50;;;0.50;;
15490;SDS011;7847;50.930;4.336;2024-03-08T07:41:18;0.40;;;0.40;;
15490;SDS011;7847;50.930;4.336;2024-03-08T07:43:45;0.40;;;0.40;;
15490;SDS011;7847;50.930;4.336;2024-03-08T07:46:11;0.43;;;0.43;;
15490;SDS011;7847;50.930;4.336;2024-03-08T07:48:38;0.50;;;0.50;;
15490;SDS011;7847;50.930;4.336;2024-03-08T07:51:05;0.40;;;0.40;;
15490;SDS011;7847;50.930;4.336;2024-03-08T07:53:31;0.40;;;0.40;;
15490;SDS011;7847;50.930;4.336;2024-03-08T07:55:57;0.40;;;0.40;;
15490;SDS011;7847;50.930;4.336;2024-03-08T07:58:23;0.40;;;0.40;;
15490;SDS011;7847;50.930;4.336;2024-03-08T08:00:49;0.40;;;0.40;;
15490;SDS011;7847;50.930;4.336;2024-03-08T08:03:15;0.40;;;0.40;;
15490;SDS011;7847;50.930;4.336;2024-03-08T08:05:44;0.50;;;0.50;;
15490;SDS011;7847;50.930;4.336;2024-03-08T08:08:11;0.40;;;0.40;;
15490;SDS011;7847;50.930;4.336;2024-03-08T08:10:37;0.40;;;0.40;;
15490;SDS011;7847;50.930;4.336;2024-03-08T08:13:03;0.40;;;0.40;;
15490;SDS011;7847;50.930;4.336;2024-03-08T08:15:32;0.40;;;0.40;;
15490;SDS011;7847;50.930;4.336;2024-03-08T08:18:01;0.40;;;0.40;;
15490;SDS011;7847;50.930;4.336;2024-03-08T08:20:30;0.40;;;0.40;;
15490;SDS011;7847;50.930;4.336;2024-03-08T08:22:56;0.40;;;0.40;;
15490;SDS011;7847;50.930;4.336;2024-03-08T08:25:24;0.40;;;0.40;;
15490;SDS011;7847;50.930;4.336;2024-03-08T08:27:50;0.40;;;0.40;;
15490;SDS011;7847;50.930;4.336;2024-03-08T08:30:16;0.40;;;0.40;;
15490;SDS011;7847;50.930;4.336;2024-03-08T08:32:42;0.40;;;0.40;;
15490;SDS011;7847;50.930;4.336;2024-03-08T08:35:08;0.43;;;0.43;;
15490;SDS011;7847;50.930;4.336;2024-03-08T08:37:34;0.40;;;0.40;;
15490;SDS011;7847;50.930;4.336;2024-03-08T08:40:02;0.40;;;0.40;;
15490;SDS011;7847;50.930;4.336;2024-03-08T08:42:35;0.40;;;0.40;;
15490;SDS011;7847;50.930;4.336;2024-03-08T08:45:01;0.40;;;0.40;;
15490;SDS011;7847;50.930;4.336;2024-03-08T08:47:27;0.40;;;0.40;;
15490;SDS011;7847;50.930;4.336;2024-03-08T08:49:53;0.43;;;0.43;;
15490;SDS011;7847;50.930;4.336;2024-03-08T08:52:19;0.40;;;0.40;;
15490;SDS011;7847;50.930;4.336;2024-03-08T08:54:45;0.40;;;0.40;;
15490;SDS011;7847;50.930;4.336;2024-03-08T08:57:11;0.40;;;0.40;;
15490;SDS011;7847;50.930;4.336;2024-03-08T08:59:38;0.40;;;0.40;;
15490;SDS011;7847;50.930;4.336;2024-03-08T09:02:05;0.43;;;0.43;;
15490;SDS011;7847;50.930;4.336;2024-03-08T09:04:31;0.40;;;0.40;;
15490;SDS011;7847;50.930;4.336;2024-03-08T09:06:57;0.40;;;0.40;;
15490;SDS011;7847;50.930;4.336;2024-03-08T09:09:23;0.40;;;0.40;;
15490;SDS011;7847;50.930;4.336;2024-03-08T09:11:50;0.40;;;0.40;;
15490;SDS011;7847;50.930;4.336;2024-03-08T09:14:17;0.50;;;0.50;;
15490;SDS011;7847;50.930;4.336;2024-03-08T09:16:45;0.40;;;0.40;;
15490;SDS011;7847;50.930;4.336;2024-03-08T09:19:12;0.40;;;0.40;;
15490;SDS011;7847;50.930;4.336;2024-03-08T09:21:38;0.40;;;0.40;;
15490;SDS011;7847;50.930;4.336;2024-03-08T09:24:07;0.40;;;0.40;;
15490;SDS011;7847;50.930;4.336;2024-03-08T09:26:33;0.40;;;0.40;;
15490;SDS011;7847;50.930;4.336;2024-03-08T09:29:00;0.40;;;0.40;;
15490;SDS011;7847;50.930;4.336;2024-03-08T09:31:26;0.43;;;0.43;;
15490;SDS011;7847;50.930;4.336;2024-03-08T09:33:52;0.40;;;0.40;;
15490;SDS011;7847;50.930;4.336;2024-03-08T09:36:18;0.40;;;0.40;;
15490;SDS011;7847;50.930;4.336;2024-03-08T09:38:44;0.40;;;0.40;;
15490;SDS011;7847;50.930;4.336;2024-03-08T09:41:10;0.40;;;0.40;;
15490;SDS011;7847;50.930;4.336;2024-03-08T09:43:37;0.40;;;0.40;;
15490;SDS011;7847;50.930;4.336;2024-03-08T09:46:03;0.40;;;0.40;;
15490;SDS011;7847;50.930;4.336;2024-03-08T09:48:31;0.47;;;0.47;;
15490;SDS011;7847;50.930;4.336;2024-03-08T09:50:59;0.40;;;0.40;;
15490;SDS011;7847;50.930;4.336;2024-03-08T09:53:25;0.30;;;0.30;;
15490;SDS011;7847;50.930;4.336;2024-03-08T09:55:51;0.40;;;0.40;;
15490;SDS011;7847;50.930;4.336;2024-03-08T09:58:17;0.40;;;0.40;;
15490;SDS011;7847;50.930;4.336;2024-03-08T10:00:53;0.37;;;0.37;;
15490;SDS011;7847;50.930;4.336;2024-03-08T10:03:19;0.40;;;0.40;;
15490;SDS011;7847;50.930;4.336;2024-03-08T10:05:45;0.40;;;0.40;;
15490;SDS011;7847;50.930;4.336;2024-03-08T10:08:12;0.30;;;0.30;;
15490;SDS011;7847;50.930;4.336;2024-03-08T10:10:38;0.40;;;0.40;;
15490;SDS011;7847;50.930;4.336;2024-03-08T10:13:07;0.40;;;0.40;;
15490;SDS011;7847;50.930;4.336;2024-03-08T10:15:34;0.40;;;0.40;;
15490;SDS011;7847;50.930;4.336;2024-03-08T10:18:00;0.40;;;0.40;;
15490;SDS011;7847;50.930;4.336;2024-03-08T10:20:27;0.30;;;0.30;;
15490;SDS011;7847;50.930;4.336;2024-03-08T10:22:54;0.40;;;0.40;;
15490;SDS011;7847;50.930;4.336;2024-03-08T10:25:20;0.30;;;0.30;;
15490;SDS011;7847;50.930;4.336;2024-03-08T10:27:46;0.37;;;0.37;;
15490;SDS011;7847;50.930;4.336;2024-03-08T10:30:16;0.40;;;0.40;;
15490;SDS011;7847;50.930;4.336;2024-03-08T10:32:46;0.30;;;0.30;;
15490;SDS011;7847;50.930;4.336;2024-03-08T10:35:13;0.40;;;0.40;;
15490;SDS011;7847;50.930;4.336;2024-03-08T10:37:46;0.30;;;0.30;;
15490;SDS011;7847;50.930;4.336;2024-03-08T10:40:15;0.30;;;0.30;;
15490;SDS011;7847;50.930;4.336;2024-03-08T10:42:55;0.30;;;0.30;;
15490;SDS011;7847;50.930;4.336;2024-03-08T10:47:53;0.40;;;0.40;;
15490;SDS011;7847;50.930;4.336;2024-03-08T10:50:24;0.30;;;0.30;;
15490;SDS011;7847;50.930;4.336;2024-03-08T10:52:51;0.30;;;0.30;;
15490;SDS011;7847;50.930;4.336;2024-03-08T10:55:17;0.30;;;0.30;;
15490;SDS011;7847;50.930;4.336;2024-03-08T10:57:45;0.30;;;0.30;;
15490;SDS011;7847;50.930;4.336;2024-03-08T11:00:12;0.30;;;0.30;;
15490;SDS011;7847;50.930;4.336;2024-03-08T11:02:39;0.30;;;0.30;;
15490;SDS011;7847;50.930;4.336;2024-03-08T11:07:55;0.30;;;0.30;;
15490;SDS011;7847;50.930;4.336;2024-03-08T11:10:21;0.30;;;0.30;;
15490;SDS011;7847;50.930;4.336;2024-03-08T11:12:47;0.30;;;0.30;;
15490;SDS011;7847;50.930;4.336;2024-03-08T11:15:13;0.37;;;0.37;;
15490;SDS011;7847;50.930;4.336;2024-03-08T11:17:40;0.30;;;0.30;;
15490;SDS011;7847;50.930;4.336;2024-03-08T11:22:40;0.30;;;0.30;;
15490;SDS011;7847;50.930;4.336;2024-03-08T11:25:08;0.30;;;0.30;;
15490;SDS011;7847;50.930;4.336;2024-03-08T11:27:36;0.30;;;0.30;;
15490;SDS011;7847;50.930;4.336;2024-03-08T11:30:03;0.33;;;0.33;;
15490;SDS011;7847;50.930;4.336;2024-03-08T11:32:36;0.30;;;0.30;;
15490;SDS011;7847;50.930;4.336;2024-03-08T11:35:05;0.30;;;0.30;;
15490;SDS011;7847;50.930;4.336;2024-03-08T11:37:33;0.30;;;0.30;;
15490;SDS011;7847;50.930;4.336;2024-03-08T11:40:05;0.40;;;0.40;;
15490;SDS011;7847;50.930;4.336;2024-03-08T11:42:39;0.40;;;0.40;;
15490;SDS011;7847;50.930;4.336;2024-03-08T11:45:09;0.30;;;0.30;;
15490;SDS011;7847;50.930;4.336;2024-03-08T11:47:36;0.30;;;0.30;;
15490;SDS011;7847;50.930;4.336;2024-03-08T11:50:05;0.30;;;0.30;;
15490;SDS011;7847;50.930;4.336;2024-03-08T11:52:35;0.30;;;0.30;;
15490;SDS011;7847;50.930;4.336;2024-03-08T11:55:02;0.30;;;0.30;;
15490;SDS011;7847;50.930;4.336;2024-03-08T11:57:30;0.30;;;0.30;;
15490;SDS011;7847;50.930;4.336;2024-03-08T11:59:57;0.30;;;0.30;;
15490;SDS011;7847;50.930;4.336;2024-03-08T12:02:31;0.30;;;0.30;;
15490;SDS011;7847;50.930;4.336;2024-03-08T12:04:57;0.30;;;0.30;;
15490;SDS011;7847;50.930;4.336;2024-03-08T12:07:25;0.30;;;0.30;;
15490;SDS011;7847;50.930;4.336;2024-03-08T12:12:42;0.30;;;0.30;;
15490;SDS011;7847;50.930;4.336;2024-03-08T12:15:08;0.30;;;0.30;;
15490;SDS011;7847;50.930;4.336;2024-03-08T12:17:36;0.20;;;0.20;;
15490;SDS011;7847;50.930;4.336;2024-03-08T12:20:23;0.30;;;0.30;;
15490;SDS011;7847;50.930;4.336;2024-03-08T12:22:54;0.30;;;0.30;;
15490;SDS011;7847;50.930;4.336;2024-03-08T12:25:25;0.30;;;0.30;;
15490;SDS011;7847;50.930;4.336;2024-03-08T12:27:51;0.30;;;0.30;;
15490;SDS011;7847;50.930;4.336;2024-03-08T12:32:56;0.30;;;0.30;;
15490;SDS011;7847;50.930;4.336;2024-03-08T12:35:23;0.30;;;0.30;;
15490;SDS011;7847;50.930;4.336;2024-03-08T12:37:50;0.30;;;0.30;;
15490;SDS011;7847;50.930;4.336;2024-03-08T12:40:18;0.30;;;0.30;;
15490;SDS011;7847;50.930;4.336;2024-03-08T12:42:44;0.30;;;0.30;;
15490;SDS011;7847;50.930;4.336;2024-03-08T12:45:13;0.30;;;0.30;;
15490;SDS011;7847;50.930;4.336;2024-03-08T12:47:39;0.20;;;0.20;;
15490;SDS011;7847;50.930;4.336;2024-03-08T12:50:07;0.30;;;0.30;;
15490;SDS011;7847;50.930;4.336;2024-03-08T12:52:33;0.30;;;0.30;;
15490;SDS011;7847;50.930;4.336;2024-03-08T12:54:59;0.20;;;0.20;;
15490;SDS011;7847;50.930;4.336;2024-03-08T12:57:28;0.20;;;0.20;;
15490;SDS011;7847;50.930;4.336;2024-03-08T12:59:54;0.30;;;0.30;;
15490;SDS011;7847;50.930;4.336;2024-03-08T13:02:21;0.30;;;0.30;;
15490;SDS011;7847;50.930;4.336;2024-03-08T13:04:49;0.30;;;0.30;;
15490;SDS011;7847;50.930;4.336;2024-03-08T13:07:22;0.20;;;0.20;;
15490;SDS011;7847;50.930;4.336;2024-03-08T13:09:51;0.30;;;0.30;;
15490;SDS011;7847;50.930;4.336;2024-03-08T13:12:17;0.30;;;0.30;;
15490;SDS011;7847;50.930;4.336;2024-03-08T13:14:45;0.30;;;0.30;;
15490;SDS011;7847;50.930;4.336;2024-03-08T13:17:12;0.30;;;0.30;;
15490;SDS011;7847;50.930;4.336;2024-03-08T13:19:38;0.30;;;0.30;;
15490;SDS011;7847;50.930;4.336;2024-03-08T13:22:04;0.27;;;0.27;;
15490;SDS011;7847;50.930;4.336;2024-03-08T13:24:32;0.30;;;0.30;;
15490;SDS011;7847;50.930;4.336;2024-03-08T13:26:59;0.20;;;0.20;;
15490;SDS011;7847;50.930;4.336;2024-03-08T13:29:25;0.30;;;0.30;;
15490;SDS011;7847;50.930;4.336;2024-03-08T13:31:51;0.20;;;0.20;;
15490;SDS011;7847;50.930;4.336;2024-03-08T13:34:20;0.30;;;0.30;;
15490;SDS011;7847;50.930;4.336;2024-03-08T13:36:54;0.20;;;0.20;;
15490;SDS011;7847;50.930;4.336;2024-03-08T13:39:25;0.20;;;0.20;;
15490;SDS011;7847;50.930;4.336;2024-03-08T13:41:51;0.30;;;0.30;;
15490;SDS011;7847;50.930;4.336;2024-03-08T13:44:17;0.30;;;0.30;;
15490;SDS011;7847;50.930;4.336;2024-03-08T13:46:43;0.23;;;0.23;;
15490;SDS011;7847;50.930;4.336;2024-03-08T13:49:09;0.30;;;0.30;;
15490;SDS011;7847;50.930;4.336;2024-03-08T13:51:36;0.20;;;0.20;;
15490;SDS011;7847;50.930;4.336;2024-03-08T13:54:02;0.30;;;0.30;;
15490;SDS011;7847;50.930;4.336;2024-03-08T13:56:31;0.30;;;0.30;;
15490;SDS011;7847;50.930;4.336;2024-03-08T13:58:57;0.20;;;0.20;;
15490;SDS011;7847;50.930;4.336;2024-03-08T14:01:23;0.30;;;0.30;;
15490;SDS011;7847;50.930;4.336;2024-03-08T14:03:50;0.20;;;0.20;;
15490;SDS011;7847;50.930;4.336;2024-03-08T14:06:16;0.20;;;0.20;;
15490;SDS011;7847;50.930;4.336;2024-03-08T14:08:42;0.30;;;0.30;;
15490;SDS011;7847;50.930;4.336;2024-03-08T14:11:08;0.30;;;0.30;;
15490;SDS011;7847;50.930;4.336;2024-03-08T14:13:44;0.30;;;0.30;;
15490;SDS011;7847;50.930;4.336;2024-03-08T14:16:13;0.30;;;0.30;;
15490;SDS011;7847;50.930;4.336;2024-03-08T14:18:40;0.30;;;0.30;;
15490;SDS011;7847;50.930;4.336;2024-03-08T14:21:07;0.30;;;0.30;;
15490;SDS011;7847;50.930;4.336;2024-03-08T14:23:33;0.20;;;0.20;;
15490;SDS011;7847;50.930;4.336;2024-03-08T14:25:59;0.20;;;0.20;;
15490;SDS011;7847;50.930;4.336;2024-03-08T14:28:25;0.30;;;0.30;;
15490;SDS011;7847;50.930;4.336;2024-03-08T14:30:54;0.20;;;0.20;;
15490;SDS011;7847;50.930;4.336;2024-03-08T14:33:20;0.30;;;0.30;;
15490;SDS011;7847;50.930;4.336;2024-03-08T14:35:46;0.20;;;0.20;;
15490;SDS011;7847;50.930;4.336;2024-03-08T14:38:14;0.20;;;0.20;;
15490;SDS011;7847;50.930;4.336;2024-03-08T14:40:43;0.20;;;0.20;;
15490;SDS011;7847;50.930;4.336;2024-03-08T14:43:12;0.30;;;0.30;;
15490;SDS011;7847;50.930;4.336;2024-03-08T14:45:39;0.20;;;0.20;;
15490;SDS011;7847;50.930;4.336;2024-03-08T14:48:06;0.20;;;0.20;;
15490;SDS011;7847;50.930;4.336;2024-03-08T14:50:32;0.30;;;0.30;;
15490;SDS011;7847;50.930;4.336;2024-03-08T14:52:58;0.30;;;0.30;;
15490;SDS011;7847;50.930;4.336;2024-03-08T14:55:25;0.20;;;0.20;;
15490;SDS011;7847;50.930;4.336;2024-03-08T14:57:51;0.30;;;0.30;;
15490;SDS011;7847;50.930;4.336;2024-03-08T15:00:19;0.20;;;0.20;;
15490;SDS011;7847;50.930;4.336;2024-03-08T15:02:52;0.27;;;0.27;;
15490;SDS011;7847;50.930;4.336;2024-03-08T15:05:19;0.20;;;0.20;;
15490;SDS011;7847;50.930;4.336;2024-03-08T15:07:46;0.20;;;0.20;;
15490;SDS011;7847;50.930;4.336;2024-03-08T15:10:14;0.20;;;0.20;;
15490;SDS011;7847;50.930;4.336;2024-03-08T15:12:41;0.20;;;0.20;;